Pagrindinis puslapis
METAR-TAF:

METAR-TAF

Oro uostai :

Ōdate-Noshiro, Japonija

platuma: 40-11N, ilguma: 140-12E, Aukštis: 84 m

Dabartinis oras

Ataskaita buvo paskelbta 3 valandos ir 1 minutes, ne 10:00 UTC
Vėjas 3 kt iš Pietų/Pietryčių
Temperatūra -2°C
Drėgmė 69%
Slėgis 1028 hPa
Matomumas 10 km arba daugiau
Mažai debesys ne aukštis 4000 ft
Išsisklaidę debesys ne aukštis 5000 ft
Su prošvaistėmis

METAR: RJSR 261000Z 16003KT 9999 FEW040 SCT050 BKN/// M02/M07 Q1028

Laikas: 22:01 (13:01 UTC)


TAF: trūkstamas

Orai ataskaitas ir orų prognozės (METAR, TAF).

turimą stotys yra geltonos ir raudonos taškus žemėlapyje.

Perkelti pele per norėdami pamatyti stoties vardą.

Tada spustelėkite, norėdami matyti oro stebėjimo ir prognozės.

Norėdami pakeisti žemėlapį: spustelėkite ant žalios mygtukų su juodo kryžiaus žemyn,; žalią mygtuką su brūkšneliu, jei norite nutolinti; arba žalių rodyklių gretimoms žemėlapius.


METAR-TAF: